sensor_id;sensor_type;location;lat;lon;timestamp;P1;durP1;ratioP1;P2;durP2;ratioP2
13764;SDS011;6953;48.810;9.204;2022-09-12T00:02:00;0.32;;;0.32;;
13764;SDS011;6953;48.810;9.204;2022-09-12T00:04:25;0.40;;;0.40;;
13764;SDS011;6953;48.810;9.204;2022-09-12T00:06:52;0.30;;;0.30;;
13764;SDS011;6953;48.810;9.204;2022-09-12T00:09:18;0.40;;;0.40;;
13764;SDS011;6953;48.810;9.204;2022-09-12T00:11:44;0.20;;;0.20;;
13764;SDS011;6953;48.810;9.204;2022-09-12T00:14:11;0.30;;;0.30;;
13764;SDS011;6953;48.810;9.204;2022-09-12T00:16:39;0.30;;;0.30;;
13764;SDS011;6953;48.810;9.204;2022-09-12T00:19:05;0.30;;;0.30;;
13764;SDS011;6953;48.810;9.204;2022-09-12T00:21:34;0.40;;;0.40;;
13764;SDS011;6953;48.810;9.204;2022-09-12T00:24:01;0.20;;;0.20;;
13764;SDS011;6953;48.810;9.204;2022-09-12T00:26:27;0.30;;;0.30;;
13764;SDS011;6953;48.810;9.204;2022-09-12T00:28:52;0.30;;;0.30;;
13764;SDS011;6953;48.810;9.204;2022-09-12T00:31:19;0.30;;;0.30;;
13764;SDS011;6953;48.810;9.204;2022-09-12T00:33:49;0.30;;;0.30;;
13764;SDS011;6953;48.810;9.204;2022-09-12T00:36:16;0.20;;;0.20;;
13764;SDS011;6953;48.810;9.204;2022-09-12T00:38:47;0.30;;;0.30;;
13764;SDS011;6953;48.810;9.204;2022-09-12T00:41:15;0.40;;;0.40;;
13764;SDS011;6953;48.810;9.204;2022-09-12T00:43:46;0.30;;;0.30;;
13764;SDS011;6953;48.810;9.204;2022-09-12T00:49:05;0.30;;;0.30;;
13764;SDS011;6953;48.810;9.204;2022-09-12T00:51:37;0.32;;;0.32;;
13764;SDS011;6953;48.810;9.204;2022-09-12T00:54:06;0.25;;;0.25;;
13764;SDS011;6953;48.810;9.204;2022-09-12T00:56:35;0.32;;;0.32;;
13764;SDS011;6953;48.810;9.204;2022-09-12T00:59:05;0.25;;;0.25;;
13764;SDS011;6953;48.810;9.204;2022-09-12T01:01:35;0.40;;;0.40;;
13764;SDS011;6953;48.810;9.204;2022-09-12T01:04:01;0.30;;;0.30;;
13764;SDS011;6953;48.810;9.204;2022-09-12T01:06:27;0.30;;;0.30;;
13764;SDS011;6953;48.810;9.204;2022-09-12T01:08:59;0.40;;;0.40;;
13764;SDS011;6953;48.810;9.204;2022-09-12T01:11:28;0.40;;;0.40;;
13764;SDS011;6953;48.810;9.204;2022-09-12T01:13:59;0.32;;;0.32;;
13764;SDS011;6953;48.810;9.204;2022-09-12T01:16:25;0.30;;;0.30;;
13764;SDS011;6953;48.810;9.204;2022-09-12T01:27:47;0.30;;;0.30;;
13764;SDS011;6953;48.810;9.204;2022-09-12T01:33:37;0.30;;;0.30;;
13764;SDS011;6953;48.810;9.204;2022-09-12T01:38:38;0.30;;;0.30;;
13764;SDS011;6953;48.810;9.204;2022-09-12T01:46:41;0.20;;;0.20;;
13764;SDS011;6953;48.810;9.204;2022-09-12T01:55:08;0.30;;;0.30;;
13764;SDS011;6953;48.810;9.204;2022-09-12T01:57:38;0.30;;;0.30;;
13764;SDS011;6953;48.810;9.204;2022-09-12T02:00:09;0.30;;;0.30;;
13764;SDS011;6953;48.810;9.204;2022-09-12T02:05:24;0.38;;;0.38;;
13764;SDS011;6953;48.810;9.204;2022-09-12T02:11:09;0.30;;;0.30;;
13764;SDS011;6953;48.810;9.204;2022-09-12T02:16:28;0.30;;;0.30;;
13764;SDS011;6953;48.810;9.204;2022-09-12T02:19:00;0.40;;;0.40;;
13764;SDS011;6953;48.810;9.204;2022-09-12T02:21:34;0.30;;;0.30;;
13764;SDS011;6953;48.810;9.204;2022-09-12T02:24:02;0.30;;;0.30;;
13764;SDS011;6953;48.810;9.204;2022-09-12T02:26:37;0.30;;;0.30;;
13764;SDS011;6953;48.810;9.204;2022-09-12T02:29:09;0.40;;;0.40;;
13764;SDS011;6953;48.810;9.204;2022-09-12T02:31:44;0.35;;;0.35;;
13764;SDS011;6953;48.810;9.204;2022-09-12T02:34:23;0.30;;;0.30;;
13764;SDS011;6953;48.810;9.204;2022-09-12T02:37:13;0.40;;;0.40;;
13764;SDS011;6953;48.810;9.204;2022-09-12T02:39:57;0.35;;;0.35;;
13764;SDS011;6953;48.810;9.204;2022-09-12T02:42:23;0.40;;;0.40;;
13764;SDS011;6953;48.810;9.204;2022-09-12T02:44:50;0.32;;;0.32;;
13764;SDS011;6953;48.810;9.204;2022-09-12T02:47:29;0.30;;;0.30;;
13764;SDS011;6953;48.810;9.204;2022-09-12T02:50:01;0.30;;;0.30;;
13764;SDS011;6953;48.810;9.204;2022-09-12T02:52:29;0.30;;;0.30;;
13764;SDS011;6953;48.810;9.204;2022-09-12T02:54:56;0.25;;;0.25;;
13764;SDS011;6953;48.810;9.204;2022-09-12T02:57:22;0.30;;;0.30;;
13764;SDS011;6953;48.810;9.204;2022-09-12T02:59:47;0.30;;;0.30;;
13764;SDS011;6953;48.810;9.204;2022-09-12T03:02:25;0.40;;;0.40;;
13764;SDS011;6953;48.810;9.204;2022-09-12T03:15:08;0.30;;;0.30;;
13764;SDS011;6953;48.810;9.204;2022-09-12T03:20:35;0.30;;;0.30;;
13764;SDS011;6953;48.810;9.204;2022-09-12T03:26:12;0.30;;;0.30;;
13764;SDS011;6953;48.810;9.204;2022-09-12T03:28:42;0.40;;;0.40;;
13764;SDS011;6953;48.810;9.204;2022-09-12T03:31:13;0.32;;;0.32;;
13764;SDS011;6953;48.810;9.204;2022-09-12T03:33:40;0.30;;;0.30;;
13764;SDS011;6953;48.810;9.204;2022-09-12T03:36:09;0.40;;;0.40;;
13764;SDS011;6953;48.810;9.204;2022-09-12T03:38:40;0.40;;;0.40;;
13764;SDS011;6953;48.810;9.204;2022-09-12T03:41:05;0.40;;;0.40;;
13764;SDS011;6953;48.810;9.204;2022-09-12T03:43:31;0.40;;;0.40;;
13764;SDS011;6953;48.810;9.204;2022-09-12T03:45:56;0.40;;;0.40;;
13764;SDS011;6953;48.810;9.204;2022-09-12T03:48:22;0.30;;;0.30;;
13764;SDS011;6953;48.810;9.204;2022-09-12T03:50:47;0.30;;;0.30;;
13764;SDS011;6953;48.810;9.204;2022-09-12T03:53:12;0.30;;;0.30;;
13764;SDS011;6953;48.810;9.204;2022-09-12T03:55:38;0.32;;;0.32;;
13764;SDS011;6953;48.810;9.204;2022-09-12T03:58:03;0.30;;;0.30;;
13764;SDS011;6953;48.810;9.204;2022-09-12T04:00:28;0.30;;;0.30;;
13764;SDS011;6953;48.810;9.204;2022-09-12T04:02:54;0.30;;;0.30;;
13764;SDS011;6953;48.810;9.204;2022-09-12T04:05:21;0.40;;;0.40;;
13764;SDS011;6953;48.810;9.204;2022-09-12T04:07:47;0.30;;;0.30;;
13764;SDS011;6953;48.810;9.204;2022-09-12T04:10:12;0.40;;;0.40;;
13764;SDS011;6953;48.810;9.204;2022-09-12T04:12:37;0.30;;;0.30;;
13764;SDS011;6953;48.810;9.204;2022-09-12T04:15:03;0.45;;;0.45;;
13764;SDS011;6953;48.810;9.204;2022-09-12T04:17:31;0.40;;;0.40;;
13764;SDS011;6953;48.810;9.204;2022-09-12T04:19:58;0.40;;;0.40;;
13764;SDS011;6953;48.810;9.204;2022-09-12T04:22:23;0.30;;;0.30;;
13764;SDS011;6953;48.810;9.204;2022-09-12T04:24:48;0.32;;;0.32;;
13764;SDS011;6953;48.810;9.204;2022-09-12T04:27:14;0.40;;;0.40;;
13764;SDS011;6953;48.810;9.204;2022-09-12T04:29:39;0.40;;;0.40;;
13764;SDS011;6953;48.810;9.204;2022-09-12T04:32:04;0.40;;;0.40;;
13764;SDS011;6953;48.810;9.204;2022-09-12T04:34:30;0.40;;;0.40;;
13764;SDS011;6953;48.810;9.204;2022-09-12T04:36:56;0.40;;;0.40;;
13764;SDS011;6953;48.810;9.204;2022-09-12T04:39:21;0.50;;;0.50;;
13764;SDS011;6953;48.810;9.204;2022-09-12T04:41:47;0.40;;;0.40;;
13764;SDS011;6953;48.810;9.204;2022-09-12T04:44:12;0.30;;;0.30;;
13764;SDS011;6953;48.810;9.204;2022-09-12T04:46:41;0.30;;;0.30;;
13764;SDS011;6953;48.810;9.204;2022-09-12T04:49:08;0.30;;;0.30;;
13764;SDS011;6953;48.810;9.204;2022-09-12T04:51:36;0.40;;;0.40;;
13764;SDS011;6953;48.810;9.204;2022-09-12T04:54:06;0.40;;;0.40;;
13764;SDS011;6953;48.810;9.204;2022-09-12T04:56:42;0.35;;;0.35;;
13764;SDS011;6953;48.810;9.204;2022-09-12T04:59:09;0.30;;;0.30;;
13764;SDS011;6953;48.810;9.204;2022-09-12T05:01:35;0.30;;;0.30;;
13764;SDS011;6953;48.810;9.204;2022-09-12T05:04:01;0.40;;;0.40;;
13764;SDS011;6953;48.810;9.204;2022-09-12T05:06:28;0.30;;;0.30;;
13764;SDS011;6953;48.810;9.204;2022-09-12T05:08:56;0.40;;;0.40;;
13764;SDS011;6953;48.810;9.204;2022-09-12T05:11:23;0.38;;;0.38;;
13764;SDS011;6953;48.810;9.204;2022-09-12T05:13:51;0.30;;;0.30;;
13764;SDS011;6953;48.810;9.204;2022-09-12T05:16:18;0.40;;;0.40;;
13764;SDS011;6953;48.810;9.204;2022-09-12T05:18:44;0.40;;;0.40;;
13764;SDS011;6953;48.810;9.204;2022-09-12T05:21:11;0.30;;;0.30;;
13764;SDS011;6953;48.810;9.204;2022-09-12T05:23:38;0.30;;;0.30;;
13764;SDS011;6953;48.810;9.204;2022-09-12T05:26:04;0.40;;;0.40;;
13764;SDS011;6953;48.810;9.204;2022-09-12T05:28:32;0.32;;;0.32;;
13764;SDS011;6953;48.810;9.204;2022-09-12T05:31:21;0.40;;;0.40;;
13764;SDS011;6953;48.810;9.204;2022-09-12T05:33:49;0.40;;;0.40;;
13764;SDS011;6953;48.810;9.204;2022-09-12T05:36:34;0.40;;;0.40;;
13764;SDS011;6953;48.810;9.204;2022-09-12T05:39:01;0.40;;;0.40;;
13764;SDS011;6953;48.810;9.204;2022-09-12T05:41:29;0.30;;;0.30;;
13764;SDS011;6953;48.810;9.204;2022-09-12T05:43:57;0.40;;;0.40;;
13764;SDS011;6953;48.810;9.204;2022-09-12T05:46:25;0.40;;;0.40;;
13764;SDS011;6953;48.810;9.204;2022-09-12T05:48:53;0.35;;;0.35;;
13764;SDS011;6953;48.810;9.204;2022-09-12T05:51:20;0.30;;;0.30;;
13764;SDS011;6953;48.810;9.204;2022-09-12T05:53:57;0.40;;;0.40;;
13764;SDS011;6953;48.810;9.204;2022-09-12T05:56:27;0.40;;;0.40;;
13764;SDS011;6953;48.810;9.204;2022-09-12T05:58:57;0.38;;;0.38;;
13764;SDS011;6953;48.810;9.204;2022-09-12T06:01:28;0.30;;;0.30;;
13764;SDS011;6953;48.810;9.204;2022-09-12T06:03:56;0.30;;;0.30;;
13764;SDS011;6953;48.810;9.204;2022-09-12T06:06:24;0.30;;;0.30;;
13764;SDS011;6953;48.810;9.204;2022-09-12T06:08:52;0.30;;;0.30;;
13764;SDS011;6953;48.810;9.204;2022-09-12T06:11:21;0.32;;;0.32;;
13764;SDS011;6953;48.810;9.204;2022-09-12T06:13:50;0.40;;;0.40;;
13764;SDS011;6953;48.810;9.204;2022-09-12T06:16:20;0.30;;;0.30;;
13764;SDS011;6953;48.810;9.204;2022-09-12T06:18:48;0.30;;;0.30;;
13764;SDS011;6953;48.810;9.204;2022-09-12T06:21:15;0.20;;;0.20;;
13764;SDS011;6953;48.810;9.204;2022-09-12T06:23:40;0.30;;;0.30;;
13764;SDS011;6953;48.810;9.204;2022-09-12T06:26:07;0.30;;;0.30;;
13764;SDS011;6953;48.810;9.204;2022-09-12T06:28:35;0.40;;;0.40;;
13764;SDS011;6953;48.810;9.204;2022-09-12T06:31:08;0.38;;;0.38;;
13764;SDS011;6953;48.810;9.204;2022-09-12T06:33:36;0.40;;;0.40;;
13764;SDS011;6953;48.810;9.204;2022-09-12T06:36:10;0.30;;;0.30;;
13764;SDS011;6953;48.810;9.204;2022-09-12T06:38:38;0.30;;;0.30;;
13764;SDS011;6953;48.810;9.204;2022-09-12T06:41:10;0.30;;;0.30;;
13764;SDS011;6953;48.810;9.204;2022-09-12T06:43:37;0.20;;;0.20;;
13764;SDS011;6953;48.810;9.204;2022-09-12T06:46:04;0.20;;;0.20;;
13764;SDS011;6953;48.810;9.204;2022-09-12T06:48:30;0.20;;;0.20;;
13764;SDS011;6953;48.810;9.204;2022-09-12T06:50:59;0.13;;;0.13;;
13764;SDS011;6953;48.810;9.204;2022-09-12T06:53:31;0.13;;;0.13;;
13764;SDS011;6953;48.810;9.204;2022-09-12T06:56:01;0.10;;;0.10;;
13764;SDS011;6953;48.810;9.204;2022-09-12T06:58:30;0.10;;;0.10;;
13764;SDS011;6953;48.810;9.204;2022-09-12T07:01:03;0.10;;;0.10;;
13764;SDS011;6953;48.810;9.204;2022-09-12T07:03:39;0.00;;;0.00;;
13764;SDS011;6953;48.810;9.204;2022-09-12T07:06:11;0.30;;;0.30;;
13764;SDS011;6953;48.810;9.204;2022-09-12T07:08:38;0.20;;;0.20;;
13764;SDS011;6953;48.810;9.204;2022-09-12T07:11:12;0.30;;;0.30;;
13764;SDS011;6953;48.810;9.204;2022-09-12T07:13:39;0.20;;;0.20;;
13764;SDS011;6953;48.810;9.204;2022-09-12T07:16:06;0.20;;;0.20;;
13764;SDS011;6953;48.810;9.204;2022-09-12T07:18:32;0.10;;;0.10;;
13764;SDS011;6953;48.810;9.204;2022-09-12T07:20:59;0.10;;;0.10;;
13764;SDS011;6953;48.810;9.204;2022-09-12T07:23:26;0.20;;;0.20;;
13764;SDS011;6953;48.810;9.204;2022-09-12T07:25:55;0.10;;;0.10;;
13764;SDS011;6953;48.810;9.204;2022-09-12T07:28:25;0.10;;;0.10;;
13764;SDS011;6953;48.810;9.204;2022-09-12T07:30:52;0.10;;;0.10;;
13764;SDS011;6953;48.810;9.204;2022-09-12T07:33:22;0.20;;;0.20;;
13764;SDS011;6953;48.810;9.204;2022-09-12T07:35:49;0.10;;;0.10;;
13764;SDS011;6953;48.810;9.204;2022-09-12T07:38:17;0.10;;;0.10;;
13764;SDS011;6953;48.810;9.204;2022-09-12T07:40:42;0.10;;;0.10;;
13764;SDS011;6953;48.810;9.204;2022-09-12T07:43:08;0.10;;;0.10;;
13764;SDS011;6953;48.810;9.204;2022-09-12T07:45:33;0.00;;;0.00;;
13764;SDS011;6953;48.810;9.204;2022-09-12T07:47:59;0.00;;;0.00;;
13764;SDS011;6953;48.810;9.204;2022-09-12T07:50:24;0.00;;;0.00;;
13764;SDS011;6953;48.810;9.204;2022-09-12T07:52:52;0.00;;;0.00;;
13764;SDS011;6953;48.810;9.204;2022-09-12T07:55:17;0.00;;;0.00;;
13764;SDS011;6953;48.810;9.204;2022-09-12T07:57:43;0.00;;;0.00;;
13764;SDS011;6953;48.810;9.204;2022-09-12T08:00:08;0.00;;;0.00;;
13764;SDS011;6953;48.810;9.204;2022-09-12T08:02:34;0.00;;;0.00;;
13764;SDS011;6953;48.810;9.204;2022-09-12T08:05:00;0.00;;;0.00;;
13764;SDS011;6953;48.810;9.204;2022-09-12T08:07:26;0.00;;;0.00;;
13764;SDS011;6953;48.810;9.204;2022-09-12T08:09:52;0.00;;;0.00;;
13764;SDS011;6953;48.810;9.204;2022-09-12T08:12:17;0.00;;;0.00;;
13764;SDS011;6953;48.810;9.204;2022-09-12T08:14:44;0.00;;;0.00;;
13764;SDS011;6953;48.810;9.204;2022-09-12T08:17:10;0.00;;;0.00;;
13764;SDS011;6953;48.810;9.204;2022-09-12T08:19:35;0.00;;;0.00;;
13764;SDS011;6953;48.810;9.204;2022-09-12T08:22:00;0.00;;;0.00;;
13764;SDS011;6953;48.810;9.204;2022-09-12T08:24:26;0.00;;;0.00;;
13764;SDS011;6953;48.810;9.204;2022-09-12T08:26:52;0.00;;;0.00;;
13764;SDS011;6953;48.810;9.204;2022-09-12T08:29:17;0.00;;;0.00;;
13764;SDS011;6953;48.810;9.204;2022-09-12T08:31:42;0.00;;;0.00;;
13764;SDS011;6953;48.810;9.204;2022-09-12T08:34:08;0.00;;;0.00;;
13764;SDS011;6953;48.810;9.204;2022-09-12T08:36:33;0.00;;;0.00;;
13764;SDS011;6953;48.810;9.204;2022-09-12T08:39:01;0.00;;;0.00;;
13764;SDS011;6953;48.810;9.204;2022-09-12T08:41:37;0.00;;;0.00;;
13764;SDS011;6953;48.810;9.204;2022-09-12T08:44:11;0.00;;;0.00;;
13764;SDS011;6953;48.810;9.204;2022-09-12T08:47:06;0.00;;;0.00;;
13764;SDS011;6953;48.810;9.204;2022-09-12T08:49:38;0.00;;;0.00;;
13764;SDS011;6953;48.810;9.204;2022-09-12T08:52:21;0.00;;;0.00;;
13764;SDS011;6953;48.810;9.204;2022-09-12T08:54:54;0.00;;;0.00;;
13764;SDS011;6953;48.810;9.204;2022-09-12T08:57:20;0.00;;;0.00;;
13764;SDS011;6953;48.810;9.204;2022-09-12T08:59:48;0.00;;;0.00;;
13764;SDS011;6953;48.810;9.204;2022-09-12T09:05:28;0.00;;;0.00;;
13764;SDS011;6953;48.810;9.204;2022-09-12T09:08:09;0.00;;;0.00;;
13764;SDS011;6953;48.810;9.204;2022-09-12T09:10:46;0.03;;;0.03;;
13764;SDS011;6953;48.810;9.204;2022-09-12T09:16:31;0.08;;;0.08;;
13764;SDS011;6953;48.810;9.204;2022-09-12T09:19:00;0.00;;;0.00;;
13764;SDS011;6953;48.810;9.204;2022-09-12T09:21:37;0.00;;;0.00;;
13764;SDS011;6953;48.810;9.204;2022-09-12T09:24:09;0.00;;;0.00;;
13764;SDS011;6953;48.810;9.204;2022-09-12T09:26:45;0.10;;;0.10;;
13764;SDS011;6953;48.810;9.204;2022-09-12T09:29:14;0.10;;;0.10;;
13764;SDS011;6953;48.810;9.204;2022-09-12T09:31:43;0.10;;;0.10;;
13764;SDS011;6953;48.810;9.204;2022-09-12T09:34:23;0.10;;;0.10;;
13764;SDS011;6953;48.810;9.204;2022-09-12T09:41:56;0.00;;;0.00;;
13764;SDS011;6953;48.810;9.204;2022-09-12T09:44:33;0.10;;;0.10;;
13764;SDS011;6953;48.810;9.204;2022-09-12T09:46:58;0.00;;;0.00;;
13764;SDS011;6953;48.810;9.204;2022-09-12T09:49:26;0.00;;;0.00;;
13764;SDS011;6953;48.810;9.204;2022-09-12T09:51:54;0.00;;;0.00;;
13764;SDS011;6953;48.810;9.204;2022-09-12T09:54:33;0.00;;;0.00;;
13764;SDS011;6953;48.810;9.204;2022-09-12T09:57:27;0.10;;;0.10;;
13764;SDS011;6953;48.810;9.204;2022-09-12T10:00:18;0.00;;;0.00;;
13764;SDS011;6953;48.810;9.204;2022-09-12T10:02:59;0.00;;;0.00;;
13764;SDS011;6953;48.810;9.204;2022-09-12T10:05:27;0.00;;;0.00;;
13764;SDS011;6953;48.810;9.204;2022-09-12T10:07:53;0.00;;;0.00;;
13764;SDS011;6953;48.810;9.204;2022-09-12T10:10:19;0.00;;;0.00;;
13764;SDS011;6953;48.810;9.204;2022-09-12T10:12:48;0.00;;;0.00;;
13764;SDS011;6953;48.810;9.204;2022-09-12T10:15:20;0.00;;;0.00;;
13764;SDS011;6953;48.810;9.204;2022-09-12T10:17:48;0.00;;;0.00;;
13764;SDS011;6953;48.810;9.204;2022-09-12T10:20:28;0.00;;;0.00;;
13764;SDS011;6953;48.810;9.204;2022-09-12T10:22:54;0.00;;;0.00;;
13764;SDS011;6953;48.810;9.204;2022-09-12T10:25:20;0.00;;;0.00;;
13764;SDS011;6953;48.810;9.204;2022-09-12T10:27:56;0.00;;;0.00;;
13764;SDS011;6953;48.810;9.204;2022-09-12T10:30:24;0.00;;;0.00;;
13764;SDS011;6953;48.810;9.204;2022-09-12T10:32:53;0.00;;;0.00;;
13764;SDS011;6953;48.810;9.204;2022-09-12T10:35:24;0.00;;;0.00;;
13764;SDS011;6953;48.810;9.204;2022-09-12T10:42:52;0.00;;;0.00;;
13764;SDS011;6953;48.810;9.204;2022-09-12T10:47:48;0.00;;;0.00;;
13764;SDS011;6953;48.810;9.204;2022-09-12T10:56:04;0.00;;;0.00;;
13764;SDS011;6953;48.810;9.204;2022-09-12T11:03:52;0.00;;;0.00;;
13764;SDS011;6953;48.810;9.204;2022-09-12T11:06:39;0.00;;;0.00;;
13764;SDS011;6953;48.810;9.204;2022-09-12T11:14:27;0.00;;;0.00;;
13764;SDS011;6953;48.810;9.204;2022-09-12T11:17:19;0.00;;;0.00;;
13764;SDS011;6953;48.810;9.204;2022-09-12T11:22:38;0.00;;;0.00;;
13764;SDS011;6953;48.810;9.204;2022-09-12T11:25:13;0.00;;;0.00;;
13764;SDS011;6953;48.810;9.204;2022-09-12T11:30:36;0.00;;;0.00;;
13764;SDS011;6953;48.810;9.204;2022-09-12T11:35:56;0.00;;;0.00;;
13764;SDS011;6953;48.810;9.204;2022-09-12T11:41:26;0.00;;;0.00;;
13764;SDS011;6953;48.810;9.204;2022-09-12T11:44:02;0.00;;;0.00;;
13764;SDS011;6953;48.810;9.204;2022-09-12T11:46:36;0.00;;;0.00;;
13764;SDS011;6953;48.810;9.204;2022-09-12T11:49:46;0.00;;;0.00;;
13764;SDS011;6953;48.810;9.204;2022-09-12T11:54:40;0.00;;;0.00;;
13764;SDS011;6953;48.810;9.204;2022-09-12T11:59:57;0.00;;;0.00;;
13764;SDS011;6953;48.810;9.204;2022-09-12T12:02:28;0.00;;;0.00;;
13764;SDS011;6953;48.810;9.204;2022-09-12T12:05:03;0.00;;;0.00;;
13764;SDS011;6953;48.810;9.204;2022-09-12T12:07:59;0.00;;;0.00;;
13764;SDS011;6953;48.810;9.204;2022-09-12T12:13:44;0.00;;;0.00;;
13764;SDS011;6953;48.810;9.204;2022-09-12T12:18:58;0.00;;;0.00;;
13764;SDS011;6953;48.810;9.204;2022-09-12T12:34:40;0.00;;;0.00;;
13764;SDS011;6953;48.810;9.204;2022-09-12T12:45:03;0.00;;;0.00;;
13764;SDS011;6953;48.810;9.204;2022-09-12T12:47:51;0.00;;;0.00;;
13764;SDS011;6953;48.810;9.204;2022-09-12T12:50:20;0.00;;;0.00;;
13764;SDS011;6953;48.810;9.204;2022-09-12T12:55:31;0.00;;;0.00;;
13764;SDS011;6953;48.810;9.204;2022-09-12T12:58:02;0.00;;;0.00;;
13764;SDS011;6953;48.810;9.204;2022-09-12T13:00:34;0.00;;;0.00;;
13764;SDS011;6953;48.810;9.204;2022-09-12T13:05:40;0.00;;;0.00;;
13764;SDS011;6953;48.810;9.204;2022-09-12T13:10:50;0.00;;;0.00;;
13764;SDS011;6953;48.810;9.204;2022-09-12T13:13:26;0.00;;;0.00;;
13764;SDS011;6953;48.810;9.204;2022-09-12T13:15:56;0.00;;;0.00;;
13764;SDS011;6953;48.810;9.204;2022-09-12T13:20:59;0.00;;;0.00;;
13764;SDS011;6953;48.810;9.204;2022-09-12T13:23:33;0.00;;;0.00;;
13764;SDS011;6953;48.810;9.204;2022-09-12T13:25:59;0.00;;;0.00;;
13764;SDS011;6953;48.810;9.204;2022-09-12T13:28:26;0.00;;;0.00;;
13764;SDS011;6953;48.810;9.204;2022-09-12T13:33:41;0.00;;;0.00;;
13764;SDS011;6953;48.810;9.204;2022-09-12T13:36:16;0.00;;;0.00;;
13764;SDS011;6953;48.810;9.204;2022-09-12T13:44:23;0.00;;;0.00;;
13764;SDS011;6953;48.810;9.204;2022-09-12T13:46:51;0.00;;;0.00;;
13764;SDS011;6953;48.810;9.204;2022-09-12T13:51:57;0.00;;;0.00;;
13764;SDS011;6953;48.810;9.204;2022-09-12T13:54:25;0.00;;;0.00;;
13764;SDS011;6953;48.810;9.204;2022-09-12T13:56:51;0.00;;;0.00;;
13764;SDS011;6953;48.810;9.204;2022-09-12T13:59:17;0.00;;;0.00;;
13764;SDS011;6953;48.810;9.204;2022-09-12T14:01:43;0.00;;;0.00;;
13764;SDS011;6953;48.810;9.204;2022-09-12T14:04:14;0.00;;;0.00;;
13764;SDS011;6953;48.810;9.204;2022-09-12T14:06:58;0.00;;;0.00;;
13764;SDS011;6953;48.810;9.204;2022-09-12T14:09:31;0.00;;;0.00;;
13764;SDS011;6953;48.810;9.204;2022-09-12T14:12:02;0.00;;;0.00;;
13764;SDS011;6953;48.810;9.204;2022-09-12T14:14:30;0.00;;;0.00;;
13764;SDS011;6953;48.810;9.204;2022-09-12T14:16:58;0.00;;;0.00;;
13764;SDS011;6953;48.810;9.204;2022-09-12T14:19:24;0.00;;;0.00;;
13764;SDS011;6953;48.810;9.204;2022-09-12T14:21:54;0.00;;;0.00;;
13764;SDS011;6953;48.810;9.204;2022-09-12T14:24:21;0.00;;;0.00;;
13764;SDS011;6953;48.810;9.204;2022-09-12T14:26:48;0.00;;;0.00;;
13764;SDS011;6953;48.810;9.204;2022-09-12T14:29:18;0.00;;;0.00;;
13764;SDS011;6953;48.810;9.204;2022-09-12T14:31:46;0.00;;;0.00;;
13764;SDS011;6953;48.810;9.204;2022-09-12T14:34:25;0.00;;;0.00;;
13764;SDS011;6953;48.810;9.204;2022-09-12T14:36:51;0.30;;;0.30;;
13764;SDS011;6953;48.810;9.204;2022-09-12T14:39:23;0.30;;;0.30;;
13764;SDS011;6953;48.810;9.204;2022-09-12T14:42:03;0.20;;;0.20;;
13764;SDS011;6953;48.810;9.204;2022-09-12T14:44:30;0.30;;;0.30;;
13764;SDS011;6953;48.810;9.204;2022-09-12T14:47:00;0.30;;;0.30;;
13764;SDS011;6953;48.810;9.204;2022-09-12T14:49:36;0.30;;;0.30;;
13764;SDS011;6953;48.810;9.204;2022-09-12T14:52:05;0.30;;;0.30;;
13764;SDS011;6953;48.810;9.204;2022-09-12T14:57:40;0.20;;;0.20;;
13764;SDS011;6953;48.810;9.204;2022-09-12T15:02:37;0.30;;;0.30;;
13764;SDS011;6953;48.810;9.204;2022-09-12T15:07:33;0.20;;;0.20;;
13764;SDS011;6953;48.810;9.204;2022-09-12T15:10:12;0.30;;;0.30;;
13764;SDS011;6953;48.810;9.204;2022-09-12T15:12:42;0.25;;;0.25;;
13764;SDS011;6953;48.810;9.204;2022-09-12T15:15:14;0.30;;;0.30;;
13764;SDS011;6953;48.810;9.204;2022-09-12T15:17:42;0.28;;;0.28;;
13764;SDS011;6953;48.810;9.204;2022-09-12T15:20:08;0.30;;;0.30;;
13764;SDS011;6953;48.810;9.204;2022-09-12T15:22:34;0.30;;;0.30;;
13764;SDS011;6953;48.810;9.204;2022-09-12T15:25:02;0.30;;;0.30;;
13764;SDS011;6953;48.810;9.204;2022-09-12T15:27:28;0.30;;;0.30;;
13764;SDS011;6953;48.810;9.204;2022-09-12T15:29:53;0.30;;;0.30;;
13764;SDS011;6953;48.810;9.204;2022-09-12T15:32:22;0.20;;;0.20;;
13764;SDS011;6953;48.810;9.204;2022-09-12T15:34:53;0.20;;;0.20;;
13764;SDS011;6953;48.810;9.204;2022-09-12T15:37:18;0.30;;;0.30;;
13764;SDS011;6953;48.810;9.204;2022-09-12T15:39:46;0.30;;;0.30;;
13764;SDS011;6953;48.810;9.204;2022-09-12T15:42:12;0.30;;;0.30;;
13764;SDS011;6953;48.810;9.204;2022-09-12T15:44:38;0.20;;;0.20;;
13764;SDS011;6953;48.810;9.204;2022-09-12T15:47:04;0.20;;;0.20;;
13764;SDS011;6953;48.810;9.204;2022-09-12T15:49:30;0.20;;;0.20;;
13764;SDS011;6953;48.810;9.204;2022-09-12T15:51:56;0.30;;;0.30;;
13764;SDS011;6953;48.810;9.204;2022-09-12T15:54:22;0.30;;;0.30;;
13764;SDS011;6953;48.810;9.204;2022-09-12T15:56:47;0.30;;;0.30;;
13764;SDS011;6953;48.810;9.204;2022-09-12T15:59:13;0.30;;;0.30;;
13764;SDS011;6953;48.810;9.204;2022-09-12T16:01:38;0.28;;;0.28;;
13764;SDS011;6953;48.810;9.204;2022-09-12T16:04:08;0.30;;;0.30;;
13764;SDS011;6953;48.810;9.204;2022-09-12T16:06:45;0.30;;;0.30;;
13764;SDS011;6953;48.810;9.204;2022-09-12T16:09:10;0.30;;;0.30;;
13764;SDS011;6953;48.810;9.204;2022-09-12T16:11:35;0.30;;;0.30;;
13764;SDS011;6953;48.810;9.204;2022-09-12T16:14:03;0.40;;;0.40;;
13764;SDS011;6953;48.810;9.204;2022-09-12T16:16:29;0.30;;;0.30;;
13764;SDS011;6953;48.810;9.204;2022-09-12T16:18:55;0.40;;;0.40;;
13764;SDS011;6953;48.810;9.204;2022-09-12T16:21:20;0.20;;;0.20;;
13764;SDS011;6953;48.810;9.204;2022-09-12T16:23:46;0.30;;;0.30;;
13764;SDS011;6953;48.810;9.204;2022-09-12T16:26:12;0.28;;;0.28;;
13764;SDS011;6953;48.810;9.204;2022-09-12T16:28:38;0.30;;;0.30;;
13764;SDS011;6953;48.810;9.204;2022-09-12T16:31:04;0.30;;;0.30;;
13764;SDS011;6953;48.810;9.204;2022-09-12T16:33:32;0.30;;;0.30;;
13764;SDS011;6953;48.810;9.204;2022-09-12T16:36:01;0.35;;;0.35;;
13764;SDS011;6953;48.810;9.204;2022-09-12T16:38:28;0.30;;;0.30;;
13764;SDS011;6953;48.810;9.204;2022-09-12T16:41:01;0.30;;;0.30;;
13764;SDS011;6953;48.810;9.204;2022-09-12T16:43:28;0.30;;;0.30;;
13764;SDS011;6953;48.810;9.204;2022-09-12T16:46:02;0.30;;;0.30;;
13764;SDS011;6953;48.810;9.204;2022-09-12T16:48:29;0.38;;;0.38;;
13764;SDS011;6953;48.810;9.204;2022-09-12T16:50:58;0.40;;;0.40;;
13764;SDS011;6953;48.810;9.204;2022-09-12T16:53:28;0.30;;;0.30;;
13764;SDS011;6953;48.810;9.204;2022-09-12T16:55:54;0.30;;;0.30;;
13764;SDS011;6953;48.810;9.204;2022-09-12T16:58:19;0.30;;;0.30;;
13764;SDS011;6953;48.810;9.204;2022-09-12T17:00:44;0.30;;;0.30;;
13764;SDS011;6953;48.810;9.204;2022-09-12T17:03:10;0.30;;;0.30;;
13764;SDS011;6953;48.810;9.204;2022-09-12T17:05:36;0.30;;;0.30;;
13764;SDS011;6953;48.810;9.204;2022-09-12T17:08:01;0.30;;;0.30;;
13764;SDS011;6953;48.810;9.204;2022-09-12T17:10:27;0.30;;;0.30;;
13764;SDS011;6953;48.810;9.204;2022-09-12T17:12:54;0.20;;;0.20;;
13764;SDS011;6953;48.810;9.204;2022-09-12T17:15:20;0.30;;;0.30;;
13764;SDS011;6953;48.810;9.204;2022-09-12T17:17:45;0.20;;;0.20;;
13764;SDS011;6953;48.810;9.204;2022-09-12T17:20:11;0.20;;;0.20;;
13764;SDS011;6953;48.810;9.204;2022-09-12T17:22:36;0.10;;;0.10;;
13764;SDS011;6953;48.810;9.204;2022-09-12T17:25:02;0.10;;;0.10;;
13764;SDS011;6953;48.810;9.204;2022-09-12T17:27:27;0.13;;;0.13;;
13764;SDS011;6953;48.810;9.204;2022-09-12T17:29:52;0.20;;;0.20;;
13764;SDS011;6953;48.810;9.204;2022-09-12T17:32:18;0.20;;;0.20;;
13764;SDS011;6953;48.810;9.204;2022-09-12T17:34:43;0.20;;;0.20;;
13764;SDS011;6953;48.810;9.204;2022-09-12T17:37:08;0.20;;;0.20;;
13764;SDS011;6953;48.810;9.204;2022-09-12T17:39:34;0.20;;;0.20;;
13764;SDS011;6953;48.810;9.204;2022-09-12T17:41:59;0.30;;;0.30;;
13764;SDS011;6953;48.810;9.204;2022-09-12T17:44:25;0.40;;;0.40;;
13764;SDS011;6953;48.810;9.204;2022-09-12T17:46:53;0.40;;;0.40;;
13764;SDS011;6953;48.810;9.204;2022-09-12T17:49:18;0.50;;;0.50;;
13764;SDS011;6953;48.810;9.204;2022-09-12T17:51:45;0.50;;;0.50;;
13764;SDS011;6953;48.810;9.204;2022-09-12T17:54:13;0.50;;;0.50;;
13764;SDS011;6953;48.810;9.204;2022-09-12T17:56:40;0.50;;;0.50;;